X  Zatvori METAR podaci zračne luke     EHEH Eindhoven Airport
Temperatura
25°C Temperatura
16°C Točka rosišta
57% Vlaga



Vjetar
23 KM/S
14 MPS
6 M/S
12 Čvorovi



240°
ZJZ
Trenutna situacija

Pretežno oblačno Pretežno oblačno
Tlak zraka 1014.9 (hPa) - 29.97 (inHg)
Vidljivost 6 (milje) - 9.7 (km)
Zračna luka
Kôd zračne luke EHEH

Lokacija: Eindhoven Airport
Udaljenost: 10 (km)

Metar:
EHEH 231255Z AUTO 24012KT 180V290 9999 BKN034 BKN044 25/16 Q1015 BLU NOSIG

Vrijeme: 23-07-2024 14:55 CEST